Saturday, March 28, 2015, 7:46 PM EDT

KNHK, Nas Patuxent River Md

Location: Patuxent River, MD, United States Lat: 38.3
Local Time: 7:46 PM EDT (23:46 GMT) Lon: -76.4
Time Zone: US/Eastern Elev: 39 ft

Show me the last for .
Show Decoded

2015-03-28 18:52 METAR KNHK 282252Z AUTO 31015KT 10SM BKN070 01/M13 A3011 RMK AO2 SLP194
                 T00111128 =
2015-03-28 17:52 METAR KNHK 282152Z 31015G27KT 10SM FEW020 BKN065 01/M12 A3007 RMK AO2 PK WND
                 32029/2127 SLP183 T00111122 =
2015-03-28 16:52 METAR KNHK 282052Z 34021KT 10SM FEW020 BKN065 02/M12 A3003 RMK AO2 PK WND
                 32026/2049 SLP170 T00221122 53012 =
2015-03-28 15:52 METAR KNHK 281952Z 32020G27KT 10SM FEW020 BKN065 02/M12 A3001 RMK AO2 PK WND
                 33027/1948 SLP162 T00221117 =
2015-03-28 14:52 METAR KNHK 281852Z 32013G24KT 10SM BKN050 BKN080 03/M13 A3000 RMK AO2 PK WND
                 33027/1809 SLP158 T00281128 =
2015-03-28 13:52 METAR KNHK 281752Z 32018G28KT 10SM FEW050 SCT080 03/M12 A3000 RMK AO2 PK WND
                 32032/1713 SLP158 T00281122 10033 20011 51013 =
2015-03-28 12:52 METAR KNHK 281652Z 32023G29KT 10SM FEW060 SCT080 02/M13 A2999 RMK AO2 PK WND
                 32030/1555 SLP154 T00221128 =
2015-03-28 11:52 METAR KNHK 281552Z 32019G28KT 10SM FEW065 SCT095 02/M12 A2998 RMK AO2 PK WND
                 31031/1510 SLP153 T00221122 =
2015-03-28 10:52 METAR KNHK 281452Z 33027G33KT 10SM FEW065 SCT095 02/M13 A2996 RMK AO2 PK WND
                 32033/1449 SLP146 T00221128 50013 =
2015-03-28 09:52 METAR KNHK 281352Z 32022G31KT 10SM FEW065 SCT095 02/M11 A2997 RMK AO2 PK WND
                 32032/1326 SLP148 T00171111 =
2015-03-28 08:52 METAR KNHK 281252Z 31015KT 10SM FEW075 BKN095 BKN250 01/M08 A2995 RMK AO2 PK WND
                 31027/1203 SLP142 T00111078 =
2015-03-28 07:52 METAR KNHK 281152Z 30016G21KT 10SM FEW065 BKN085 BKN250 01/M08 A2992 RMK AO2 PK
                 WND 32026/1129 SLP133 70029 T00111078 10044 20011 53029 =
2015-03-28 07:10 METAR KNHK 281110Z 30016KT 10SM BKN075 OVC250 01/M08 A2990 RMK AO2 T00111078 =
2015-03-28 06:52 METAR KNHK 281052Z AUTO 32017G26KT 10SM SCT055 OVC070 02/M07 A2989 RMK AO2 PK
                 WND 32029/1041 SLP120 T00171072 =
2015-03-28 05:52 METAR KNHK 280952Z AUTO 33016G21KT 10SM OVC085 02/M07 A2986 RMK AO2 PK WND
                 33029/0929 SLP113 T00221067 =
2015-03-28 04:52 METAR KNHK 280852Z AUTO 33016KT 10SM OVC070 03/M04 A2984 RMK AO2 PK WND
                 33027/0833 SLP104 T00281044 51012 =
2015-03-28 01:52 METAR KNHK 280552Z AUTO 33013KT 10SM CLR 04/M02 A2980 RMK AO2 SLP091 T00441017
                 10050 20039 58003 =
2015-03-27 23:52 METAR KNHK 280352Z AUTO 29006KT 6SM BR BKN060 OVC100 04/03 A2981 RMK AO2 SLP095
                 T00440028 =
2015-03-27 22:52 METAR KNHK 280252Z 27004KT 9SM BKN110 04/03 A2981 RMK AO2 SLP094 T00440028 51007
                 =
2015-03-27 21:52 METAR KNHK 280152Z 25003KT 8SM OVC095 04/03 A2981 RMK AO2 SLP094 T00440028 =
2015-03-27 20:52 METAR KNHK 280052Z 20003KT 10SM OVC090 04/03 A2981 RMK AO2 SLP094 T00440028 =
2015-03-27 19:52 METAR KNHK 272352Z 25003KT 9SM FEW012 OVC090 04/02 A2979 RMK AO2 SLP086 60005
                 T00440022 10050 20039 53002 =

Support USWX by starting your Amazon purchase here.